createdAt,value
2023-03-06T00:00:12.727Z,59.75
2023-03-06T00:01:12.740Z,59.75
2023-03-06T00:02:12.711Z,59.75
2023-03-06T00:03:12.710Z,59.75
2023-03-06T00:04:12.684Z,59.75
2023-03-06T00:05:12.717Z,59.75
2023-03-06T00:06:12.738Z,59.75
2023-03-06T00:07:12.655Z,59.75
2023-03-06T00:08:12.651Z,59.75
2023-03-06T00:09:12.661Z,59.75
2023-03-06T00:10:12.621Z,59.75
2023-03-06T00:11:12.615Z,59.75
2023-03-06T00:12:12.615Z,59.75
2023-03-06T00:13:12.606Z,59.75
2023-03-06T00:14:12.598Z,59.75
2023-03-06T00:15:12.620Z,59.75
2023-03-06T00:16:12.600Z,59.75
2023-03-06T00:17:12.552Z,59.75
2023-03-06T00:18:12.538Z,59.75
2023-03-06T00:19:12.531Z,59.75
2023-03-06T00:20:12.559Z,59.75
2023-03-06T00:21:12.507Z,59.75
2023-03-06T00:22:12.496Z,59.75
2023-03-06T00:23:12.522Z,59.75
2023-03-06T00:24:12.473Z,59.75
2023-03-06T00:25:12.469Z,59.75
2023-03-06T00:26:12.481Z,59.75
2023-03-06T00:27:12.438Z,59.75
2023-03-06T00:28:12.453Z,59.75
2023-03-06T00:29:12.418Z,59.75
2023-03-06T00:30:12.407Z,59.75
2023-03-06T00:31:12.498Z,59.75
2023-03-06T00:32:12.418Z,59.75
2023-03-06T00:33:12.390Z,59.75
2023-03-06T00:34:12.367Z,59.75
2023-03-06T00:35:12.350Z,59.75
2023-03-06T00:36:12.344Z,59.75
2023-03-06T00:37:12.352Z,59.75
2023-03-06T00:38:12.328Z,59.75
2023-03-06T00:39:12.308Z,59.75
2023-03-06T00:40:12.328Z,59.75
2023-03-06T00:41:12.287Z,59.75
2023-03-06T00:42:12.279Z,59.75
2023-03-06T00:43:12.284Z,59.75
2023-03-06T00:44:12.251Z,59.75
2023-03-06T00:45:12.257Z,59.75
2023-03-06T00:46:12.284Z,59.75
2023-03-06T00:47:12.248Z,59.75
2023-03-06T00:48:12.216Z,59.75
2023-03-06T00:49:12.203Z,59.75
2023-03-06T00:50:12.229Z,59.75
2023-03-06T00:51:14.029Z,59.75
2023-03-06T00:52:12.165Z,59.75
2023-03-06T00:53:12.176Z,59.75
2023-03-06T00:54:12.177Z,59.75
2023-03-06T00:55:12.144Z,59.75
2023-03-06T00:56:12.123Z,59.75
2023-03-06T00:57:12.126Z,59.75
2023-03-06T00:58:12.101Z,59.75
2023-03-06T00:59:12.116Z,59.75
2023-03-06T01:00:12.077Z,59.75
2023-03-06T01:01:12.121Z,59.75
2023-03-06T01:02:12.139Z,59.75
2023-03-06T01:03:12.078Z,59.75
2023-03-06T01:04:12.061Z,59.75
2023-03-06T01:05:12.024Z,59.75
2023-03-06T01:06:12.029Z,59.78
2023-03-06T01:07:11.999Z,59.75
2023-03-06T01:08:11.994Z,59.75
2023-03-06T01:09:11.980Z,59.75
2023-03-06T01:10:11.976Z,59.75
2023-03-06T01:11:11.981Z,59.75
2023-03-06T01:12:11.948Z,59.78
2023-03-06T01:13:11.935Z,59.75
2023-03-06T01:14:11.940Z,59.75
2023-03-06T01:15:11.911Z,59.75
2023-03-06T01:16:11.952Z,59.75
2023-03-06T01:17:11.891Z,59.75
2023-03-06T01:18:11.876Z,59.75
2023-03-06T01:19:11.893Z,59.75
2023-03-06T01:20:11.875Z,59.75
2023-03-06T01:21:11.848Z,59.75
2023-03-06T01:22:11.839Z,59.75
2023-03-06T01:23:11.840Z,59.75
2023-03-06T01:24:11.812Z,59.75
2023-03-06T01:25:11.806Z,59.75
2023-03-06T01:26:11.793Z,59.75
2023-03-06T01:27:11.800Z,59.75
2023-03-06T01:28:11.767Z,59.75
2023-03-06T01:29:11.762Z,59.75
2023-03-06T01:30:11.763Z,59.75
2023-03-06T01:31:11.736Z,59.75
2023-03-06T01:32:11.823Z,59.75
2023-03-06T01:33:11.712Z,59.75
2023-03-06T01:34:11.707Z,59.78
2023-03-06T01:35:11.714Z,59.75
2023-03-06T01:36:11.721Z,59.75
2023-03-06T01:37:11.694Z,59.75
2023-03-06T01:38:11.684Z,59.75
2023-03-06T01:39:11.655Z,59.75
2023-03-06T01:40:11.641Z,59.75
2023-03-06T01:41:11.629Z,59.85
2023-03-06T01:42:11.623Z,59.78
2023-03-06T01:43:11.640Z,59.75
2023-03-06T01:44:11.601Z,59.78
2023-03-06T01:45:11.588Z,59.75
2023-03-06T01:46:11.593Z,59.75
2023-03-06T01:47:11.567Z,59.78
2023-03-06T01:48:11.578Z,59.75
2023-03-06T01:49:11.543Z,59.75
2023-03-06T01:50:11.547Z,59.78
2023-03-06T01:51:11.572Z,59.75
2023-03-06T01:52:11.531Z,59.78
2023-03-06T01:53:11.502Z,59.78
2023-03-06T01:54:11.495Z,59.75
2023-03-06T01:55:11.481Z,59.78
2023-03-06T01:56:11.476Z,59.75
2023-03-06T01:57:11.478Z,59.75
2023-03-06T01:58:11.457Z,59.88
2023-03-06T01:59:11.435Z,59.85
2023-03-06T02:00:11.445Z,59.88
2023-03-06T02:01:11.507Z,59.88
2023-03-06T02:02:11.438Z,59.75
2023-03-06T02:03:11.420Z,59.78
2023-03-06T02:04:11.383Z,59.78
2023-03-06T02:05:11.373Z,59.75
2023-03-06T02:06:11.394Z,59.75
2023-03-06T02:07:11.374Z,59.75
2023-03-06T02:08:11.341Z,59.88
2023-03-06T02:09:11.332Z,59.75
2023-03-06T02:10:11.318Z,59.75
2023-03-06T02:11:11.376Z,59.78
2023-03-06T02:12:11.323Z,59.75
2023-03-06T02:13:11.284Z,59.75
2023-03-06T02:14:11.297Z,59.78
2023-03-06T02:15:11.285Z,59.75
2023-03-06T02:16:11.271Z,59.75
2023-03-06T02:17:11.242Z,59.78
2023-03-06T02:18:11.234Z,59.78
2023-03-06T02:19:11.244Z,59.75
2023-03-06T02:20:11.215Z,59.78
2023-03-06T02:21:11.200Z,59.78
2023-03-06T02:22:11.188Z,59.78
2023-03-06T02:23:11.203Z,59.75
2023-03-06T02:24:11.189Z,59.78
2023-03-06T02:25:11.181Z,59.78
2023-03-06T02:26:11.148Z,59.78
2023-03-06T02:27:11.137Z,59.78
2023-03-06T02:28:11.133Z,59.78
2023-03-06T02:29:11.117Z,59.75
2023-03-06T02:30:11.122Z,59.75
2023-03-06T02:31:11.179Z,59.78
2023-03-06T02:32:11.128Z,59.78
2023-03-06T02:33:11.072Z,59.75
2023-03-06T02:34:11.058Z,59.78
2023-03-06T02:35:11.074Z,59.78
2023-03-06T02:36:11.041Z,59.75
2023-03-06T02:37:11.046Z,59.78
2023-03-06T02:38:11.015Z,59.78
2023-03-06T02:39:11.033Z,59.75
2023-03-06T02:40:10.995Z,59.78
2023-03-06T02:41:11.010Z,59.75
2023-03-06T02:42:10.973Z,59.78
2023-03-06T02:43:10.971Z,59.78
2023-03-06T02:44:10.951Z,59.78
2023-03-06T02:45:10.963Z,59.78
2023-03-06T02:46:10.986Z,59.78
2023-03-06T02:47:10.942Z,59.78
2023-03-06T02:48:10.905Z,59.78
2023-03-06T02:49:10.899Z,59.78
2023-03-06T02:50:10.882Z,59.78
2023-03-06T02:51:10.888Z,59.78
2023-03-06T02:52:10.882Z,59.78
2023-03-06T02:53:10.850Z,59.78
2023-03-06T02:54:10.844Z,59.75
2023-03-06T02:55:10.856Z,59.78
2023-03-06T02:56:10.819Z,59.75
2023-03-06T02:57:10.827Z,59.78
2023-03-06T02:58:10.799Z,59.78
2023-03-06T02:59:10.810Z,59.75
2023-03-06T03:00:10.775Z,59.78
2023-03-06T03:01:10.828Z,59.78
2023-03-06T03:02:10.763Z,59.78
2023-03-06T03:03:10.756Z,59.78
2023-03-06T03:04:10.800Z,59.78
2023-03-06T03:05:10.717Z,59.78
2023-03-06T03:06:10.725Z,59.78
2023-03-06T03:07:10.696Z,59.78
2023-03-06T03:08:10.688Z,59.75
2023-03-06T03:09:10.698Z,59.78
2023-03-06T03:10:10.662Z,59.78
2023-03-06T03:11:10.679Z,59.78
2023-03-06T03:12:10.665Z,59.78
2023-03-06T03:13:10.653Z,59.78
2023-03-06T03:14:10.639Z,59.78
2023-03-06T03:15:10.608Z,59.78
2023-03-06T03:16:10.696Z,59.78
2023-03-06T03:17:10.586Z,59.78
2023-03-06T03:18:10.582Z,59.78
2023-03-06T03:19:10.585Z,59.78
2023-03-06T03:20:10.557Z,59.78
2023-03-06T03:21:10.564Z,59.78
2023-03-06T03:22:10.534Z,59.78
2023-03-06T03:23:10.530Z,59.78
2023-03-06T03:24:10.542Z,59.78
2023-03-06T03:25:10.505Z,59.78
2023-03-06T03:26:10.510Z,59.78
2023-03-06T03:27:10.505Z,59.78
2023-03-06T03:28:10.471Z,59.78
2023-03-06T03:29:10.462Z,59.78
2023-03-06T03:30:10.476Z,59.78
2023-03-06T03:31:10.521Z,59.78
2023-03-06T03:32:10.452Z,59.78
2023-03-06T03:33:10.419Z,59.78
2023-03-06T03:34:10.408Z,59.78
2023-03-06T03:35:10.418Z,59.78
2023-03-06T03:36:10.384Z,59.78
2023-03-06T03:37:10.403Z,59.78
2023-03-06T03:38:17.840Z,59.78
2023-03-06T03:39:10.356Z,59.78
2023-03-06T03:40:10.406Z,59.78
2023-03-06T03:41:10.332Z,59.78
2023-03-06T03:42:10.341Z,59.78
2023-03-06T03:43:10.337Z,59.78
2023-03-06T03:44:10.311Z,59.78
2023-03-06T03:45:10.289Z,59.78
2023-03-06T03:46:10.328Z,59.78
2023-03-06T03:47:10.267Z,59.78
2023-03-06T03:48:10.258Z,59.78
2023-03-06T03:49:10.246Z,59.78
2023-03-06T03:50:10.239Z,59.78
2023-03-06T03:51:10.267Z,59.78
2023-03-06T03:52:10.214Z,59.78
2023-03-06T03:53:10.209Z,59.78
2023-03-06T03:54:10.192Z,59.78
2023-03-06T03:55:10.183Z,59.78
2023-03-06T03:56:10.170Z,59.78
2023-03-06T03:57:10.179Z,59.78
2023-03-06T03:58:10.146Z,59.78
2023-03-06T03:59:10.161Z,59.78
2023-03-06T04:00:10.130Z,59.78
2023-03-06T04:01:10.113Z,59.78
2023-03-06T04:02:10.226Z,59.78
2023-03-06T04:03:10.101Z,59.78
2023-03-06T04:04:10.103Z,59.78
2023-03-06T04:05:10.098Z,59.78
2023-03-06T04:06:10.059Z,59.78
2023-03-06T04:07:10.046Z,59.78
2023-03-06T04:08:10.062Z,59.78
2023-03-06T04:09:10.026Z,59.78
2023-03-06T04:10:10.016Z,59.78
2023-03-06T04:11:10.034Z,59.78
2023-03-06T04:12:10.000Z,59.78
2023-03-06T04:13:10.312Z,59.78
2023-03-06T04:14:09.977Z,59.78
2023-03-06T04:15:09.988Z,59.78
2023-03-06T04:16:10.001Z,59.78
2023-03-06T04:17:09.940Z,59.78
2023-03-06T04:18:09.934Z,59.78
2023-03-06T04:19:09.920Z,59.78
2023-03-06T04:20:09.916Z,59.78
2023-03-06T04:21:09.898Z,59.78
2023-03-06T04:22:09.917Z,59.78
2023-03-06T04:23:09.877Z,59.78
2023-03-06T04:24:09.893Z,59.78
2023-03-06T04:25:09.871Z,59.78
2023-03-06T04:26:09.859Z,59.78
2023-03-06T04:27:09.838Z,59.78
2023-03-06T04:28:09.824Z,59.78
2023-03-06T04:29:09.814Z,59.78
2023-03-06T04:30:09.825Z,59.78
2023-03-06T04:31:09.822Z,59.78
2023-03-06T04:32:09.803Z,59.78
2023-03-06T04:33:09.771Z,59.78
2023-03-06T04:34:09.762Z,59.78
2023-03-06T04:35:09.788Z,59.78
2023-03-06T04:36:09.740Z,59.78
2023-03-06T04:37:09.733Z,59.78
2023-03-06T04:38:09.735Z,59.78
2023-03-06T04:39:09.748Z,59.78
2023-03-06T04:40:09.718Z,59.78
2023-03-06T04:41:09.687Z,59.78
2023-03-06T04:42:09.675Z,59.78
2023-03-06T04:43:09.667Z,59.78
2023-03-06T04:44:09.682Z,59.78
2023-03-06T04:45:09.643Z,59.78
2023-03-06T04:46:09.632Z,59.78
2023-03-06T04:47:09.648Z,59.78
2023-03-06T04:48:09.611Z,59.78
2023-03-06T04:49:09.643Z,59.78
2023-03-06T04:50:09.595Z,59.78
2023-03-06T04:51:09.578Z,59.88
2023-03-06T04:52:09.569Z,59.78
2023-03-06T04:53:09.584Z,59.78
2023-03-06T04:54:09.547Z,59.78
2023-03-06T04:55:09.535Z,59.78
2023-03-06T04:56:09.575Z,59.78
2023-03-06T04:57:09.516Z,59.78
2023-03-06T04:58:09.503Z,59.78
2023-03-06T04:59:09.496Z,59.78
2023-03-06T05:00:09.504Z,59.78
2023-03-06T05:01:09.539Z,59.78
2023-03-06T05:02:09.497Z,59.78
2023-03-06T05:03:09.471Z,59.78
2023-03-06T05:04:09.468Z,59.78
2023-03-06T05:05:09.447Z,59.78
2023-03-06T05:06:09.447Z,59.78
2023-03-06T05:07:09.409Z,59.78
2023-03-06T05:08:09.392Z,59.78
2023-03-06T05:09:09.383Z,59.78
2023-03-06T05:10:09.372Z,59.78
2023-03-06T05:11:09.383Z,59.78
2023-03-06T05:12:09.376Z,59.78
2023-03-06T05:13:09.335Z,59.78
2023-03-06T05:14:09.326Z,59.78
2023-03-06T05:15:09.323Z,59.78
2023-03-06T05:16:09.373Z,59.78
2023-03-06T05:17:09.314Z,59.78
2023-03-06T05:18:09.281Z,59.78
2023-03-06T05:19:09.310Z,59.78
2023-03-06T05:20:09.264Z,59.78
2023-03-06T05:21:09.252Z,59.78
2023-03-06T05:22:09.266Z,59.78
2023-03-06T05:23:09.230Z,59.78
2023-03-06T05:24:09.219Z,59.78
2023-03-06T05:25:09.210Z,59.78
2023-03-06T05:26:09.196Z,59.78
2023-03-06T05:27:09.210Z,59.78
2023-03-06T05:28:09.171Z,59.78
2023-03-06T05:29:09.174Z,59.78
2023-03-06T05:30:09.151Z,59.78
2023-03-06T05:31:09.148Z,59.78
2023-03-06T05:32:09.339Z,59.78
2023-03-06T05:33:09.120Z,59.78
2023-03-06T05:34:09.130Z,59.78
2023-03-06T05:35:09.122Z,59.78
2023-03-06T05:36:09.101Z,59.78
2023-03-06T05:37:09.079Z,59.88
2023-03-06T05:38:09.090Z,59.78
2023-03-06T05:39:09.059Z,59.78
2023-03-06T05:40:09.050Z,59.78
2023-03-06T05:41:09.038Z,59.78
2023-03-06T05:42:09.026Z,59.78
2023-03-06T05:43:09.049Z,59.78
2023-03-06T05:44:09.028Z,59.78
2023-03-06T05:45:08.997Z,59.78
2023-03-06T05:46:09.052Z,59.78
2023-03-06T05:47:08.973Z,59.88
2023-03-06T05:48:08.962Z,59.88
2023-03-06T05:49:08.956Z,59.78
2023-03-06T05:50:08.964Z,59.78
2023-03-06T05:51:08.956Z,59.78
2023-03-06T05:52:08.931Z,59.78
2023-03-06T05:53:08.909Z,59.88
2023-03-06T05:54:08.899Z,59.78
2023-03-06T05:55:08.913Z,59.78
2023-03-06T05:56:08.892Z,59.88
2023-03-06T05:57:08.864Z,59.78
2023-03-06T05:58:08.852Z,59.78
2023-03-06T05:59:08.841Z,59.78
2023-03-06T06:00:08.861Z,59.78
2023-03-06T06:01:08.821Z,59.78
2023-03-06T06:02:08.830Z,59.78
2023-03-06T06:03:08.875Z,59.78
2023-03-06T06:04:08.790Z,59.78
2023-03-06T06:05:09.844Z,59.78
2023-03-06T06:06:08.771Z,59.78
2023-03-06T06:07:08.777Z,59.78
2023-03-06T06:08:08.771Z,59.78
2023-03-06T06:09:08.737Z,59.78
2023-03-06T06:10:08.721Z,59.78
2023-03-06T06:11:08.713Z,59.78
2023-03-06T06:12:08.699Z,59.78
2023-03-06T06:13:08.721Z,59.78
2023-03-06T06:14:08.686Z,59.78
2023-03-06T06:15:08.702Z,59.78
2023-03-06T06:16:08.755Z,59.78
2023-03-06T06:17:08.698Z,59.78
2023-03-06T06:18:08.644Z,59.78
2023-03-06T06:19:08.629Z,59.78
2023-03-06T06:20:08.615Z,59.78
2023-03-06T06:21:08.602Z,59.78
2023-03-06T06:22:08.596Z,59.78
2023-03-06T06:23:08.625Z,59.78
2023-03-06T06:24:08.590Z,59.78
2023-03-06T06:25:08.560Z,59.78
2023-03-06T06:26:08.554Z,59.78
2023-03-06T06:27:08.542Z,59.78
2023-03-06T06:28:08.533Z,59.78
2023-03-06T06:29:08.537Z,59.78
2023-03-06T06:30:08.511Z,59.78
2023-03-06T06:31:08.623Z,59.78
2023-03-06T06:32:08.537Z,59.78
2023-03-06T06:33:08.470Z,59.78
2023-03-06T06:34:08.492Z,59.78
2023-03-06T06:35:08.451Z,59.78
2023-03-06T06:36:08.440Z,59.78
2023-03-06T06:37:08.430Z,59.78
2023-03-06T06:38:08.418Z,59.78
2023-03-06T06:39:08.452Z,59.78
2023-03-06T06:40:08.402Z,59.78
2023-03-06T06:41:42.290Z,59.78
2023-03-06T06:42:28.884Z,59.78
2023-03-06T06:43:09.373Z,59.78
2023-03-06T06:44:08.824Z,59.78
2023-03-06T06:45:08.386Z,59.78
2023-03-06T06:46:34.027Z,59.78
2023-03-06T06:47:25.734Z,59.78
2023-03-06T06:48:09.356Z,59.78
2023-03-06T06:49:08.322Z,59.78
2023-03-06T06:50:08.394Z,59.78
2023-03-06T06:51:08.277Z,59.78
2023-03-06T06:52:08.294Z,59.78
2023-03-06T06:53:08.255Z,59.78
2023-03-06T06:54:08.249Z,59.68
2023-03-06T06:55:08.308Z,59.78
2023-03-06T06:56:08.247Z,59.68
2023-03-06T06:57:08.214Z,59.78
2023-03-06T06:58:08.201Z,59.78
2023-03-06T06:59:16.625Z,59.78
2023-03-06T07:00:09.237Z,59.78
2023-03-06T07:01:08.240Z,59.78
2023-03-06T07:02:08.160Z,59.78
2023-03-06T07:03:08.152Z,59.78
2023-03-06T07:04:08.220Z,59.78
2023-03-06T07:05:08.169Z,59.78
2023-03-06T07:06:08.127Z,59.78
2023-03-06T07:07:08.108Z,59.78
2023-03-06T07:08:08.095Z,59.78
2023-03-06T07:09:08.091Z,59.78
2023-03-06T07:10:08.074Z,59.78
2023-03-06T07:11:08.114Z,59.78
2023-03-06T07:12:08.053Z,59.78
2023-03-06T07:13:08.049Z,59.78
2023-03-06T07:14:08.036Z,59.78
2023-03-06T07:15:08.031Z,59.78
2023-03-06T07:16:08.118Z,59.78
2023-03-06T07:17:08.006Z,59.78
2023-03-06T07:18:07.986Z,59.78
2023-03-06T07:19:07.981Z,59.78
2023-03-06T07:20:07.967Z,59.78
2023-03-06T07:21:07.978Z,59.78
2023-03-06T07:22:07.966Z,59.78
2023-03-06T07:23:07.938Z,59.78
2023-03-06T07:24:07.977Z,59.78
2023-03-06T07:25:07.909Z,59.78
2023-03-06T07:26:07.905Z,59.78
2023-03-06T07:27:07.946Z,59.78
2023-03-06T07:28:08.047Z,59.78
2023-03-06T07:29:07.869Z,59.78
2023-03-06T07:30:08.049Z,59.78
2023-03-06T07:31:07.886Z,59.78
2023-03-06T07:32:07.899Z,59.78
2023-03-06T07:33:07.827Z,59.78
2023-03-06T07:34:07.816Z,59.78
2023-03-06T07:35:19.707Z,59.78
2023-03-06T07:36:10.886Z,59.78
2023-03-06T07:37:07.793Z,59.78
2023-03-06T07:38:07.777Z,59.78
2023-03-06T07:39:07.761Z,59.78
2023-03-06T07:40:07.789Z,59.78
2023-03-06T07:41:07.741Z,59.78
2023-03-06T07:42:07.746Z,59.78
2023-03-06T07:43:18.786Z,59.78
2023-03-06T07:44:08.710Z,59.78
2023-03-06T07:45:07.727Z,59.78
2023-03-06T07:46:07.798Z,59.78
2023-03-06T07:47:07.702Z,59.78
2023-03-06T07:48:07.671Z,59.78
2023-03-06T07:49:07.686Z,59.78
2023-03-06T07:50:07.646Z,59.68
2023-03-06T07:51:07.656Z,59.68
2023-03-06T07:52:07.626Z,59.68
2023-03-06T07:53:07.636Z,59.78
2023-03-06T07:54:07.603Z,59.78
2023-03-06T07:55:07.599Z,59.78
2023-03-06T07:56:07.607Z,59.78
2023-03-06T07:57:07.577Z,59.88
2023-03-06T07:58:07.561Z,59.88
2023-03-06T07:59:07.579Z,59.88
2023-03-06T08:00:07.553Z,59.99
2023-03-06T08:01:07.531Z,59.99
2023-03-06T08:02:07.540Z,60.08
2023-03-06T08:03:07.591Z,60.08
2023-03-06T08:04:07.576Z,60.08
2023-03-06T08:05:07.550Z,59.99
2023-03-06T08:06:07.471Z,59.95
2023-03-06T08:07:07.492Z,59.95
2023-03-06T08:08:07.456Z,59.95
2023-03-06T08:09:07.465Z,59.95
2023-03-06T08:10:07.431Z,59.95
2023-03-06T08:11:07.426Z,59.85
2023-03-06T08:12:07.409Z,59.85
2023-03-06T08:13:07.436Z,59.85
2023-03-06T08:14:07.394Z,59.85
2023-03-06T08:15:07.469Z,59.83
2023-03-06T08:16:07.447Z,59.72
2023-03-06T08:17:07.354Z,59.83
2023-03-06T08:18:07.341Z,59.72
2023-03-06T08:19:07.333Z,59.63
2023-03-06T08:20:07.323Z,59.49
2023-03-06T08:21:07.327Z,59.39
2023-03-06T08:22:07.298Z,59.39
2023-03-06T08:23:07.289Z,59.39
2023-03-06T08:24:07.630Z,59.29
2023-03-06T08:25:07.334Z,59.16
2023-03-06T08:26:07.277Z,59.06
2023-03-06T08:27:07.275Z,59.16
2023-03-06T08:28:07.238Z,59.16
2023-03-06T08:29:07.248Z,59.14
2023-03-06T08:30:07.212Z,59.03
2023-03-06T08:31:07.279Z,59.03
2023-03-06T08:32:07.230Z,58.93
2023-03-06T08:33:07.176Z,58.83
2023-03-06T08:34:07.197Z,58.80
2023-03-06T08:35:07.249Z,58.70
2023-03-06T08:36:07.171Z,58.70
2023-03-06T08:37:07.188Z,58.60
2023-03-06T08:38:07.124Z,58.50
2023-03-06T08:39:07.137Z,58.50
2023-03-06T08:40:07.103Z,58.40
2023-03-06T08:41:07.112Z,58.40
2023-03-06T08:42:07.086Z,58.30
2023-03-06T08:43:07.085Z,58.30
2023-03-06T08:44:07.068Z,58.17
2023-03-06T08:45:07.095Z,58.20
2023-03-06T08:46:07.146Z,58.17
2023-03-06T08:47:07.057Z,58.07
2023-03-06T08:48:07.019Z,58.07
2023-03-06T08:49:07.062Z,58.17
2023-03-06T08:50:06.996Z,58.07
2023-03-06T08:51:07.003Z,58.07
2023-03-06T08:52:07.006Z,58.07
2023-03-06T08:53:06.966Z,58.17
2023-03-06T08:54:06.957Z,58.07
2023-03-06T08:55:07.073Z,58.17
2023-03-06T08:56:06.933Z,58.17
2023-03-06T08:57:06.958Z,58.07
2023-03-06T08:58:06.933Z,58.07
2023-03-06T08:59:06.979Z,58.07
2023-03-06T09:00:06.896Z,58.07
2023-03-06T09:01:07.022Z,58.09
2023-03-06T09:02:06.891Z,58.17
2023-03-06T09:03:06.888Z,58.20
2023-03-06T09:04:06.876Z,58.20
2023-03-06T09:05:06.906Z,58.20
2023-03-06T09:06:06.843Z,58.30
2023-03-06T09:07:06.812Z,58.30
2023-03-06T09:08:06.800Z,58.40
2023-03-06T09:09:06.821Z,58.40
2023-03-06T09:10:06.783Z,58.40
2023-03-06T09:11:06.771Z,58.40
2023-03-06T09:12:06.755Z,58.50
2023-03-06T09:13:06.777Z,58.50
2023-03-06T09:14:06.736Z,58.50
2023-03-06T09:15:06.781Z,58.50
2023-03-06T09:16:06.715Z,58.50
2023-03-06T09:17:06.735Z,58.60
2023-03-06T09:18:06.818Z,58.60
2023-03-06T09:19:06.715Z,58.60
2023-03-06T09:20:06.703Z,58.60
2023-03-06T09:21:06.660Z,58.60
2023-03-06T09:22:06.652Z,58.70
2023-03-06T09:23:06.648Z,58.60
2023-03-06T09:24:06.660Z,58.60
2023-03-06T09:25:06.701Z,58.60
2023-03-06T09:26:06.637Z,58.70
2023-03-06T09:27:06.605Z,58.70
2023-03-06T09:28:11.636Z,58.70
2023-03-06T09:29:07.578Z,58.60
2023-03-06T09:30:06.579Z,58.70
2023-03-06T09:31:06.625Z,58.70
2023-03-06T09:32:06.709Z,58.80
2023-03-06T09:33:06.535Z,58.80
2023-03-06T09:34:06.535Z,58.80
2023-03-06T09:35:06.617Z,58.80
2023-03-06T09:36:06.511Z,58.80
2023-03-06T09:37:06.496Z,58.91
2023-03-06T09:38:06.515Z,58.91
2023-03-06T09:39:06.475Z,58.80
2023-03-06T09:40:06.488Z,58.80
2023-03-06T09:41:06.452Z,58.70
2023-03-06T09:42:06.443Z,58.80
2023-03-06T09:43:06.429Z,58.80
2023-03-06T09:44:06.418Z,58.80
2023-03-06T09:45:06.447Z,58.80
2023-03-06T09:46:06.480Z,58.80
2023-03-06T09:47:06.411Z,58.80
2023-03-06T09:48:06.388Z,58.80
2023-03-06T09:49:06.363Z,58.91
2023-03-06T09:50:06.358Z,58.91
2023-03-06T09:51:06.364Z,58.91
2023-03-06T09:52:06.352Z,58.91
2023-03-06T09:53:06.327Z,58.91
2023-03-06T09:54:06.312Z,59.00
2023-03-06T09:55:06.338Z,59.00
2023-03-06T09:56:06.293Z,58.91
2023-03-06T09:57:06.301Z,59.00
2023-03-06T09:58:07.523Z,59.00
2023-03-06T09:59:06.268Z,59.00
2023-03-06T10:00:06.242Z,59.00
2023-03-06T10:01:06.236Z,59.11
2023-03-06T10:02:06.349Z,59.51
2023-03-06T10:03:06.409Z,59.64
2023-03-06T10:04:06.201Z,59.61
2023-03-06T10:05:06.380Z,59.64
2023-03-06T10:06:06.179Z,59.71
2023-03-06T10:07:06.199Z,59.91
2023-03-06T10:08:06.187Z,59.94
2023-03-06T10:09:06.156Z,60.12
2023-03-06T10:10:06.137Z,60.12
2023-03-06T10:11:06.126Z,60.22
2023-03-06T10:12:06.120Z,60.22
2023-03-06T10:13:06.129Z,60.22
2023-03-06T10:14:06.103Z,60.12
2023-03-06T10:15:06.098Z,60.12
2023-03-06T10:16:06.142Z,60.12
2023-03-06T10:17:06.086Z,60.12
2023-03-06T10:18:06.054Z,60.02
2023-03-06T10:19:06.041Z,60.02
2023-03-06T10:20:06.062Z,59.91
2023-03-06T10:21:18.723Z,59.71
2023-03-06T10:22:07.007Z,59.51
2023-03-06T10:23:06.032Z,58.80
2023-03-06T10:24:06.057Z,58.73
2023-03-06T10:25:06.005Z,58.73
2023-03-06T10:26:06.014Z,58.91
2023-03-06T10:27:06.027Z,58.93
2023-03-06T10:28:05.949Z,58.93
2023-03-06T10:29:05.944Z,58.80
2023-03-06T10:30:05.949Z,58.93
2023-03-06T10:31:05.954Z,58.93
2023-03-06T10:32:05.942Z,58.93
2023-03-06T10:33:05.996Z,58.91
2023-03-06T10:34:05.884Z,58.93
2023-03-06T10:35:05.896Z,59.11
2023-03-06T10:36:05.959Z,59.11
2023-03-06T10:37:05.860Z,59.41
2023-03-06T10:38:05.862Z,59.41
2023-03-06T10:39:05.858Z,59.41
2023-03-06T10:40:05.820Z,59.41
2023-03-06T10:41:05.813Z,59.21
2023-03-06T10:42:05.798Z,59.21
2023-03-06T10:43:11.823Z,59.31
2023-03-06T10:44:06.776Z,59.31
2023-03-06T10:45:05.768Z,59.21
2023-03-06T10:46:05.808Z,59.41
2023-03-06T10:47:05.787Z,59.51
2023-03-06T10:48:05.742Z,59.51
2023-03-06T10:49:05.729Z,59.31
2023-03-06T10:50:08.312Z,59.31
2023-03-06T10:51:16.630Z,59.21
2023-03-06T10:52:06.743Z,59.31
2023-03-06T10:53:05.700Z,59.41
2023-03-06T10:54:05.670Z,59.41
2023-03-06T10:55:05.707Z,59.61
2023-03-06T10:56:05.648Z,60.12
2023-03-06T10:57:05.635Z,59.81
2023-03-06T10:58:05.625Z,59.61
2023-03-06T10:59:05.639Z,59.61
2023-03-06T11:00:05.616Z,59.71
2023-03-06T11:01:05.621Z,59.61
2023-03-06T11:02:05.581Z,59.31
2023-03-06T11:03:05.571Z,59.41
2023-03-06T11:04:05.589Z,59.41
2023-03-06T11:05:05.583Z,59.31
2023-03-06T11:06:05.540Z,59.28
2023-03-06T11:07:05.569Z,59.28
2023-03-06T11:08:05.516Z,59.18
2023-03-06T11:09:05.504Z,59.18
2023-03-06T11:10:05.496Z,59.08
2023-03-06T11:11:05.531Z,59.08
2023-03-06T11:12:05.477Z,59.08
2023-03-06T11:13:05.486Z,59.08
2023-03-06T11:14:05.457Z,59.08
2023-03-06T11:15:05.438Z,59.18
2023-03-06T11:16:05.515Z,58.98
2023-03-06T11:17:05.419Z,59.18
2023-03-06T11:18:05.434Z,58.98
2023-03-06T11:19:05.395Z,58.87
2023-03-06T11:20:05.390Z,58.87
2023-03-06T11:21:05.375Z,58.87
2023-03-06T11:22:05.369Z,58.87
2023-03-06T11:23:05.381Z,58.78
2023-03-06T11:24:05.355Z,58.78
2023-03-06T11:25:05.333Z,58.78
2023-03-06T11:26:05.342Z,58.78
2023-03-06T11:27:05.353Z,58.87
2023-03-06T11:28:05.315Z,58.87
2023-03-06T11:29:05.370Z,58.98
2023-03-06T11:30:05.277Z,58.98
2023-03-06T11:31:05.301Z,58.98
2023-03-06T11:32:05.342Z,58.98
2023-03-06T11:33:05.282Z,59.08
2023-03-06T11:34:05.241Z,59.08
2023-03-06T11:35:05.300Z,59.08
2023-03-06T11:36:05.211Z,59.08
2023-03-06T11:37:05.198Z,59.08
2023-03-06T11:38:05.186Z,58.98
2023-03-06T11:39:05.196Z,59.08
2023-03-06T11:40:05.166Z,59.08
2023-03-06T11:41:05.153Z,59.08
2023-03-06T11:42:05.140Z,59.08
2023-03-06T11:43:05.186Z,59.08
2023-03-06T11:44:05.143Z,59.08
2023-03-06T11:45:05.111Z,59.08
2023-03-06T11:46:05.098Z,59.08
2023-03-06T11:47:05.108Z,59.18
2023-03-06T11:48:05.075Z,59.18
2023-03-06T11:49:05.095Z,59.08
2023-03-06T11:50:05.062Z,59.08
2023-03-06T11:51:06.499Z,59.08
2023-03-06T11:52:05.043Z,59.18
2023-03-06T11:53:05.038Z,59.08
2023-03-06T11:54:05.010Z,59.08
2023-03-06T11:55:05.021Z,59.08
2023-03-06T11:56:05.016Z,59.08
2023-03-06T11:57:04.980Z,59.08
2023-03-06T11:58:04.969Z,59.08
2023-03-06T11:59:04.984Z,59.08
2023-03-06T12:00:04.948Z,59.08
2023-03-06T12:01:04.942Z,58.98
2023-03-06T12:02:05.073Z,58.87
2023-03-06T12:03:04.919Z,58.87
2023-03-06T12:04:04.904Z,58.78
2023-03-06T12:05:04.996Z,58.78
2023-03-06T12:06:04.883Z,58.78
2023-03-06T12:07:07.284Z,58.78
2023-03-06T12:08:04.924Z,58.67
2023-03-06T12:09:04.910Z,58.67
2023-03-06T12:11:04.835Z,58.78
2023-03-06T12:12:04.839Z,58.78
2023-03-06T12:13:04.808Z,58.78
2023-03-06T12:14:04.853Z,58.78
2023-03-06T12:15:04.811Z,58.78
2023-03-06T12:16:04.807Z,58.78
2023-03-06T12:17:04.792Z,58.67
2023-03-06T12:18:04.794Z,58.67
2023-03-06T12:19:04.765Z,58.78
2023-03-06T12:20:04.735Z,58.67
2023-03-06T12:21:04.720Z,58.67
2023-03-06T12:22:04.709Z,58.67
2023-03-06T12:23:14.822Z,58.67
2023-03-06T12:24:05.716Z,58.67
2023-03-06T12:25:04.680Z,58.67
2023-03-06T12:26:04.668Z,58.67
2023-03-06T12:27:04.655Z,58.67
2023-03-06T12:28:04.666Z,58.58
2023-03-06T12:29:04.640Z,58.58
2023-03-06T12:30:04.624Z,58.58
2023-03-06T12:31:04.715Z,58.58
2023-03-06T12:32:04.808Z,58.58
2023-03-06T12:33:04.619Z,58.58
2023-03-06T12:34:04.587Z,58.58
2023-03-06T12:35:06.105Z,58.58
2023-03-06T12:36:04.588Z,58.58
2023-03-06T12:37:04.552Z,58.58
2023-03-06T12:38:04.559Z,58.58
2023-03-06T12:39:04.563Z,58.58
2023-03-06T12:40:04.517Z,58.58
2023-03-06T12:41:04.549Z,58.58
2023-03-06T12:42:06.751Z,58.58
2023-03-06T12:43:04.492Z,58.47
2023-03-06T12:44:04.474Z,58.47
2023-03-06T12:45:04.484Z,58.47
2023-03-06T12:46:04.522Z,58.47
2023-03-06T12:47:04.459Z,58.47
2023-03-06T12:48:04.431Z,58.47
2023-03-06T12:49:04.426Z,58.47
2023-03-06T12:50:04.431Z,58.47
2023-03-06T12:51:04.407Z,58.47
2023-03-06T12:52:04.415Z,58.47
2023-03-06T12:53:04.372Z,58.58